createdAt,value
2023-05-25T00:01:01.164Z,16.28
2023-05-25T00:03:31.260Z,16.20
2023-05-25T00:06:01.534Z,16.28
2023-05-25T00:08:31.196Z,16.34
2023-05-25T00:10:59.373Z,16.36
2023-05-25T00:13:27.360Z,16.34
2023-05-25T00:15:55.215Z,16.31
2023-05-25T00:18:24.764Z,16.32
2023-05-25T00:20:54.122Z,16.33
2023-05-25T00:23:22.237Z,16.38
2023-05-25T00:25:51.509Z,16.39
2023-05-25T00:28:19.454Z,16.46
2023-05-25T00:30:47.387Z,16.44
2023-05-25T00:33:15.634Z,16.50
2023-05-25T00:35:44.788Z,16.54
2023-05-25T00:38:14.489Z,16.59
2023-05-25T00:40:42.639Z,16.49
2023-05-25T00:43:12.651Z,16.61
2023-05-25T00:45:41.751Z,16.58
2023-05-25T00:48:11.388Z,16.52
2023-05-25T00:50:40.705Z,16.44
2023-05-25T00:53:10.519Z,16.41
2023-05-25T00:55:42.391Z,16.36
2023-05-25T00:58:14.311Z,16.32
2023-05-25T01:00:46.700Z,16.28
2023-05-25T01:03:21.829Z,16.26
2023-05-25T01:05:55.299Z,16.21
2023-05-25T01:08:26.511Z,16.18
2023-05-25T01:10:55.207Z,16.26
2023-05-25T01:13:24.665Z,16.28
2023-05-25T01:15:53.611Z,16.27
2023-05-25T01:18:21.465Z,16.25
2023-05-25T01:21:02.029Z,16.24
2023-05-25T01:23:35.982Z,16.18
2023-05-25T01:26:10.417Z,16.15
2023-05-25T01:28:42.025Z,16.12
2023-05-25T01:31:10.583Z,16.05
2023-05-25T01:33:39.509Z,16.02
2023-05-25T01:36:08.913Z,16.01
2023-05-25T01:38:38.511Z,15.90
2023-05-25T01:41:06.526Z,15.88
2023-05-25T01:43:34.501Z,15.93
2023-05-25T01:46:11.827Z,15.93
2023-05-25T01:48:49.586Z,15.95
2023-05-25T01:51:26.728Z,15.96
2023-05-25T01:54:00.180Z,15.96
2023-05-25T01:56:31.998Z,15.97
2023-05-25T01:59:02.566Z,15.97
2023-05-25T02:01:34.576Z,16.00
2023-05-25T02:04:03.321Z,15.95
2023-05-25T02:06:36.514Z,15.98
2023-05-25T02:09:07.358Z,16.00
2023-05-25T02:11:35.343Z,16.00
2023-05-25T02:14:03.233Z,15.97
2023-05-25T02:16:31.186Z,15.93
2023-05-25T02:19:01.145Z,15.99
2023-05-25T02:21:29.175Z,16.01
2023-05-25T02:23:59.097Z,15.93
2023-05-25T02:26:27.366Z,15.79
2023-05-25T02:28:55.255Z,15.87
2023-05-25T02:31:23.142Z,15.88
2023-05-25T02:33:51.126Z,15.79
2023-05-25T02:36:21.108Z,15.78
2023-05-25T02:38:52.171Z,15.73
2023-05-25T02:41:22.155Z,15.65
2023-05-25T02:43:50.047Z,15.67
2023-05-25T02:46:17.964Z,15.68
2023-05-25T02:48:46.641Z,15.74
2023-05-25T02:51:14.915Z,15.67
2023-05-25T02:53:43.003Z,15.71
2023-05-25T02:56:11.323Z,15.73
2023-05-25T02:58:40.989Z,15.55
2023-05-25T03:01:18.717Z,15.43
2023-05-25T03:03:53.109Z,15.46
2023-05-25T03:06:26.205Z,15.42
2023-05-25T03:09:04.996Z,15.40
2023-05-25T03:11:33.538Z,15.39
2023-05-25T03:14:07.054Z,15.42
2023-05-25T03:16:36.643Z,15.44
2023-05-25T03:19:05.686Z,15.48
2023-05-25T03:21:36.211Z,15.50
2023-05-25T03:24:04.439Z,15.46
2023-05-25T03:26:32.829Z,15.42
2023-05-25T03:29:02.249Z,15.43
2023-05-25T03:31:32.067Z,15.54
2023-05-25T03:33:59.998Z,15.68
2023-05-25T03:36:28.409Z,15.78
2023-05-25T03:38:56.475Z,15.88
2023-05-25T03:41:24.496Z,15.92
2023-05-25T03:43:53.069Z,15.96
2023-05-25T03:46:21.753Z,15.92
2023-05-25T03:48:51.074Z,15.92
2023-05-25T03:51:19.115Z,15.92
2023-05-25T03:53:47.058Z,15.90
2023-05-25T03:56:14.928Z,15.87
2023-05-25T03:58:42.822Z,15.94
2023-05-25T04:01:12.459Z,15.88
2023-05-25T04:03:40.557Z,15.96
2023-05-25T04:06:10.076Z,15.98
2023-05-25T04:08:40.934Z,16.04
2023-05-25T04:11:08.855Z,16.04
2023-05-25T04:13:36.869Z,16.00
2023-05-25T04:16:07.091Z,16.03
2023-05-25T04:18:36.129Z,16.08
2023-05-25T04:21:07.040Z,16.17
2023-05-25T04:23:37.833Z,16.25
2023-05-25T04:26:10.170Z,16.33
2023-05-25T04:28:41.738Z,16.31
2023-05-25T04:31:29.925Z,16.36
2023-05-25T04:34:21.523Z,16.32
2023-05-25T04:37:05.663Z,16.44
2023-05-25T04:39:35.687Z,16.44
2023-05-25T04:42:04.597Z,16.47
2023-05-25T04:44:33.932Z,16.46
2023-05-25T04:47:03.051Z,16.49
2023-05-25T04:49:34.356Z,16.70
2023-05-25T04:52:02.348Z,16.94
2023-05-25T04:54:31.880Z,17.10
2023-05-25T04:57:04.222Z,16.88
2023-05-25T04:59:33.176Z,16.77
2023-05-25T05:02:01.626Z,16.76
2023-05-25T05:04:30.423Z,16.83
2023-05-25T05:06:59.858Z,16.76
2023-05-25T05:09:30.408Z,16.60
2023-05-25T05:12:00.968Z,16.62
2023-05-25T05:14:31.810Z,16.74
2023-05-25T05:17:00.011Z,16.92
2023-05-25T05:19:29.333Z,16.99
2023-05-25T05:21:57.463Z,17.01
2023-05-25T05:24:27.250Z,17.05
2023-05-25T05:26:58.305Z,17.06
2023-05-25T05:29:40.950Z,17.18
2023-05-25T05:32:09.434Z,17.29
2023-05-25T05:34:37.592Z,17.39
2023-05-25T05:37:10.560Z,17.35
2023-05-25T05:39:38.708Z,17.24
2023-05-25T05:42:08.155Z,17.27
2023-05-25T05:44:36.289Z,17.32
2023-05-25T05:47:06.570Z,17.26
2023-05-25T05:49:35.378Z,17.28
2023-05-25T05:52:04.490Z,17.19
2023-05-25T05:54:33.647Z,17.20
2023-05-25T05:57:07.119Z,17.22
2023-05-25T05:59:35.685Z,17.18
2023-05-25T06:02:05.267Z,17.23
2023-05-25T06:04:33.369Z,17.29
2023-05-25T06:07:01.255Z,17.35
2023-05-25T06:09:29.273Z,17.33
2023-05-25T06:12:01.647Z,17.35
2023-05-25T06:14:30.231Z,17.41
2023-05-25T06:17:01.850Z,17.43
2023-05-25T06:19:41.912Z,17.43
2023-05-25T06:22:09.903Z,17.50
2023-05-25T06:24:37.845Z,17.57
2023-05-25T06:27:06.893Z,17.60
2023-05-25T06:29:35.096Z,17.54
2023-05-25T06:32:04.739Z,17.59
2023-05-25T06:34:37.906Z,17.60
2023-05-25T06:37:07.101Z,17.49
2023-05-25T06:39:36.249Z,17.67
2023-05-25T06:42:04.884Z,17.65
2023-05-25T06:44:35.205Z,17.65
2023-05-25T06:47:04.087Z,17.67
2023-05-25T06:49:32.745Z,17.75
2023-05-25T06:52:02.446Z,17.80
2023-05-25T06:54:31.021Z,17.87
2023-05-25T06:56:59.213Z,17.90
2023-05-25T06:59:27.196Z,17.97
2023-05-25T07:01:56.206Z,17.97
2023-05-25T07:04:24.410Z,18.01
2023-05-25T07:06:53.200Z,18.07
2023-05-25T07:09:22.598Z,18.10
2023-05-25T07:11:50.648Z,18.14
2023-05-25T07:14:18.989Z,18.13
2023-05-25T07:16:46.857Z,18.11
2023-05-25T07:19:15.020Z,18.14
2023-05-25T07:21:42.964Z,18.19
2023-05-25T07:24:10.988Z,18.24
2023-05-25T07:26:40.505Z,18.23
2023-05-25T07:29:08.607Z,18.27
2023-05-25T07:31:39.104Z,18.31
2023-05-25T07:34:07.147Z,18.37
2023-05-25T07:36:35.147Z,18.45
2023-05-25T07:39:03.189Z,18.51
2023-05-25T07:41:31.276Z,18.52
2023-05-25T07:44:00.694Z,18.55
2023-05-25T07:46:28.795Z,18.46
2023-05-25T07:48:58.354Z,18.44
2023-05-25T07:51:27.148Z,18.46
2023-05-25T07:53:55.364Z,18.51
2023-05-25T07:56:23.451Z,18.52
2023-05-25T07:58:51.404Z,18.59
2023-05-25T08:01:20.701Z,18.65
2023-05-25T08:03:50.150Z,18.77
2023-05-25T08:06:18.435Z,18.84
2023-05-25T08:08:47.018Z,18.87
2023-05-25T08:11:17.240Z,18.88
2023-05-25T08:13:45.334Z,18.80
2023-05-25T08:16:13.238Z,18.78
2023-05-25T08:18:46.551Z,18.81
2023-05-25T08:21:14.801Z,18.82
2023-05-25T08:23:43.900Z,18.88
2023-05-25T08:26:31.180Z,18.93
2023-05-25T08:29:02.282Z,18.83
2023-05-25T08:31:30.369Z,19.02
2023-05-25T08:34:00.419Z,19.03
2023-05-25T08:36:28.678Z,19.10
2023-05-25T08:38:57.096Z,19.14
2023-05-25T08:41:25.120Z,19.16
2023-05-25T08:43:53.245Z,19.12
2023-05-25T08:46:30.876Z,19.11
2023-05-25T08:49:05.999Z,19.12
2023-05-25T08:51:38.065Z,19.09
2023-05-25T08:54:10.669Z,19.11
2023-05-25T08:56:46.281Z,19.14
2023-05-25T08:59:24.292Z,19.10
2023-05-25T09:02:09.742Z,19.15
2023-05-25T09:04:39.842Z,19.18
2023-05-25T09:07:10.809Z,19.22
2023-05-25T09:09:40.433Z,19.30
2023-05-25T09:12:09.462Z,19.41
2023-05-25T09:14:39.776Z,19.45
2023-05-25T09:17:08.015Z,19.43
2023-05-25T09:19:37.534Z,19.54
2023-05-25T09:22:15.049Z,19.61
2023-05-25T09:24:45.334Z,19.71
2023-05-25T09:27:17.400Z,19.71
2023-05-25T09:29:45.291Z,19.73
2023-05-25T09:32:13.828Z,19.74
2023-05-25T09:34:44.971Z,19.74
2023-05-25T09:37:15.400Z,19.78
2023-05-25T09:39:44.643Z,19.83
2023-05-25T09:42:13.419Z,19.86
2023-05-25T09:44:42.770Z,19.83
2023-05-25T09:47:13.879Z,19.82
2023-05-25T09:49:44.447Z,19.98
2023-05-25T09:52:15.775Z,19.97
2023-05-25T09:54:45.778Z,19.98
2023-05-25T09:57:13.750Z,20.03
2023-05-25T09:59:42.831Z,20.00
2023-05-25T10:02:10.836Z,19.93
2023-05-25T10:04:38.854Z,20.08
2023-05-25T10:07:07.217Z,20.18
2023-05-25T10:09:41.641Z,20.18
2023-05-25T10:12:10.262Z,20.23
2023-05-25T10:14:39.237Z,20.23
2023-05-25T10:17:07.992Z,20.21
2023-05-25T10:19:41.485Z,20.26
2023-05-25T10:22:16.911Z,20.28
2023-05-25T10:24:54.764Z,20.36
2023-05-25T10:27:27.538Z,20.39
2023-05-25T10:29:57.431Z,20.40
2023-05-25T10:32:27.199Z,20.50
2023-05-25T10:34:57.858Z,20.49
2023-05-25T10:37:28.161Z,20.52
2023-05-25T10:39:59.100Z,20.60
2023-05-25T10:42:27.993Z,20.56
2023-05-25T10:44:56.655Z,20.57
2023-05-25T10:47:25.677Z,20.61
2023-05-25T10:49:55.371Z,20.63
2023-05-25T10:52:27.662Z,20.65
2023-05-25T10:55:01.549Z,20.66
2023-05-25T10:57:29.911Z,20.69
2023-05-25T11:00:06.102Z,20.70
2023-05-25T11:02:50.285Z,20.72
2023-05-25T11:05:39.296Z,20.76
2023-05-25T11:08:09.087Z,20.80
2023-05-25T11:10:56.366Z,20.84
2023-05-25T11:13:37.048Z,20.91
2023-05-25T11:16:13.549Z,20.89
2023-05-25T11:18:43.675Z,20.99
2023-05-25T11:21:16.683Z,20.98
2023-05-25T11:23:55.514Z,20.95
2023-05-25T11:26:26.496Z,20.99
2023-05-25T11:28:55.155Z,21.12
2023-05-25T11:31:31.603Z,21.23
2023-05-25T11:34:02.167Z,21.26
2023-05-25T11:36:31.609Z,21.40
2023-05-25T11:39:06.538Z,21.50
2023-05-25T11:41:42.243Z,21.53
2023-05-25T11:44:10.205Z,21.52
2023-05-25T11:46:38.751Z,21.50
2023-05-25T11:49:06.912Z,21.51
2023-05-25T11:51:36.271Z,21.53
2023-05-25T11:54:04.435Z,21.63
2023-05-25T11:56:35.875Z,21.74
2023-05-25T11:59:08.760Z,21.76
2023-05-25T12:01:36.743Z,21.75
2023-05-25T12:04:09.930Z,21.74
2023-05-25T12:06:38.314Z,21.81
2023-05-25T12:09:12.841Z,21.92
2023-05-25T12:11:45.354Z,22.03
2023-05-25T12:14:15.537Z,22.11
2023-05-25T12:16:43.917Z,22.21
2023-05-25T12:19:12.756Z,22.24
2023-05-25T12:21:41.955Z,22.35
2023-05-25T12:24:12.611Z,22.48
2023-05-25T12:26:49.082Z,22.55
2023-05-25T12:29:18.548Z,22.57
2023-05-25T12:31:46.500Z,22.75
2023-05-25T12:34:15.824Z,22.79
2023-05-25T12:36:46.319Z,22.90
2023-05-25T12:39:16.012Z,23.00
2023-05-25T12:41:49.258Z,23.05
2023-05-25T12:44:25.396Z,23.19
2023-05-25T12:46:54.671Z,23.33
2023-05-25T12:49:27.329Z,23.38
2023-05-25T12:51:55.506Z,23.33
2023-05-25T12:54:45.099Z,23.43
2023-05-25T12:57:15.086Z,23.61
2023-05-25T12:59:46.232Z,23.78
2023-05-25T13:02:15.606Z,23.81
2023-05-25T13:04:44.571Z,23.78
2023-05-25T13:07:12.832Z,23.82
2023-05-25T13:09:40.803Z,24.02
2023-05-25T13:12:09.457Z,24.06
2023-05-25T13:14:37.484Z,24.16
2023-05-25T13:17:07.155Z,24.21
2023-05-25T13:19:35.194Z,24.22
2023-05-25T13:22:03.191Z,24.30
2023-05-25T13:24:31.150Z,24.43
2023-05-25T13:26:59.058Z,24.57
2023-05-25T13:29:26.962Z,24.54
2023-05-25T13:31:54.852Z,24.64
2023-05-25T13:34:24.144Z,24.83
2023-05-25T13:36:52.035Z,24.88
2023-05-25T13:39:21.987Z,24.88
2023-05-25T13:41:49.945Z,25.02
2023-05-25T13:44:18.001Z,25.14
2023-05-25T13:46:46.801Z,25.30
2023-05-25T13:49:16.225Z,25.38
2023-05-25T13:51:45.617Z,25.52
2023-05-25T13:54:13.703Z,25.70
2023-05-25T13:56:42.455Z,25.67
2023-05-25T13:59:10.751Z,25.85
2023-05-25T14:01:38.699Z,26.03
2023-05-25T14:04:06.692Z,26.02
2023-05-25T14:06:34.950Z,26.08
2023-05-25T14:09:04.338Z,26.21
2023-05-25T14:11:32.696Z,26.28
2023-05-25T14:14:00.678Z,26.27
2023-05-25T14:16:28.881Z,26.19
2023-05-25T14:18:57.383Z,26.11
2023-05-25T14:21:25.358Z,26.20
2023-05-25T14:23:53.283Z,26.32
2023-05-25T14:26:23.010Z,26.34
2023-05-25T14:28:51.345Z,26.47
2023-05-25T14:31:19.428Z,26.55
2023-05-25T14:33:47.503Z,26.67
2023-05-25T14:36:15.492Z,26.69
2023-05-25T14:38:44.732Z,26.75
2023-05-25T14:41:12.605Z,26.88
2023-05-25T14:43:42.221Z,26.96
2023-05-25T14:46:10.577Z,26.99
2023-05-25T14:48:38.500Z,26.92
2023-05-25T14:51:06.506Z,26.97
2023-05-25T14:53:36.619Z,27.00
2023-05-25T14:56:04.581Z,26.86
2023-05-25T14:58:32.876Z,26.76
2023-05-25T15:01:02.136Z,26.81
2023-05-25T15:03:30.259Z,26.88
2023-05-25T15:05:58.281Z,26.94
2023-05-25T15:08:26.122Z,26.96
2023-05-25T15:10:54.173Z,26.96
2023-05-25T15:13:22.707Z,26.94
2023-05-25T15:15:52.081Z,26.97
2023-05-25T15:18:21.494Z,27.03
2023-05-25T15:20:49.429Z,26.92
2023-05-25T15:23:17.459Z,26.91
2023-05-25T15:25:45.500Z,26.99
2023-05-25T15:28:13.370Z,27.02
2023-05-25T15:30:41.330Z,27.06
2023-05-25T15:33:09.604Z,27.02
2023-05-25T15:35:38.892Z,26.91
2023-05-25T15:38:06.926Z,26.97
2023-05-25T15:40:37.001Z,26.88
2023-05-25T15:43:04.950Z,26.77
2023-05-25T15:45:32.933Z,26.60
2023-05-25T15:48:00.927Z,26.65
2023-05-25T15:50:28.861Z,26.75
2023-05-25T15:52:58.193Z,26.82
2023-05-25T15:55:43.171Z,26.77
2023-05-25T15:58:12.413Z,26.76
2023-05-25T16:00:40.392Z,26.77
2023-05-25T16:03:08.417Z,26.85
2023-05-25T16:05:36.325Z,26.96
2023-05-25T16:08:05.663Z,26.88
2023-05-25T16:10:33.607Z,26.98
2023-05-25T16:13:01.706Z,26.97
2023-05-25T16:15:29.707Z,26.87
2023-05-25T16:17:57.566Z,26.75
2023-05-25T16:20:25.464Z,26.73
2023-05-25T16:22:53.382Z,26.73
2023-05-25T16:25:22.606Z,26.76
2023-05-25T16:27:50.596Z,26.55
2023-05-25T16:30:18.595Z,26.46
2023-05-25T16:32:46.503Z,26.25
2023-05-25T16:35:14.482Z,26.15
2023-05-25T16:37:42.374Z,26.26
2023-05-25T16:40:10.993Z,26.14
2023-05-25T16:42:40.340Z,26.18
2023-05-25T16:45:09.201Z,25.95
2023-05-25T16:47:37.185Z,25.96
2023-05-25T16:50:05.928Z,26.12
2023-05-25T16:52:33.785Z,26.26
2023-05-25T16:55:01.872Z,26.34
2023-05-25T16:57:29.848Z,26.54
2023-05-25T16:59:59.123Z,26.50
2023-05-25T17:02:27.199Z,26.49
2023-05-25T17:04:55.153Z,26.40
2023-05-25T17:07:23.062Z,25.99
2023-05-25T17:09:50.990Z,25.73
2023-05-25T17:12:18.903Z,25.49
2023-05-25T17:14:46.881Z,25.39
2023-05-25T17:17:16.484Z,25.33
2023-05-25T17:19:44.399Z,25.17
2023-05-25T17:22:12.468Z,25.18
2023-05-25T17:24:40.357Z,24.86
2023-05-25T17:27:08.228Z,24.73
2023-05-25T17:29:36.842Z,24.83
2023-05-25T17:32:05.019Z,24.74
2023-05-25T17:34:34.426Z,24.61
2023-05-25T17:37:02.374Z,24.43
2023-05-25T17:39:30.340Z,24.12
2023-05-25T17:41:58.308Z,23.99
2023-05-25T17:44:26.896Z,23.98
2023-05-25T17:46:54.914Z,23.80
2023-05-25T17:49:22.894Z,23.72
2023-05-25T17:51:52.303Z,23.54
2023-05-25T17:54:25.518Z,23.42
2023-05-25T17:56:53.726Z,23.07
2023-05-25T17:59:21.836Z,22.82
2023-05-25T18:01:49.989Z,22.60
2023-05-25T18:04:19.491Z,22.43
2023-05-25T18:06:49.752Z,22.23
2023-05-25T18:09:19.200Z,22.12
2023-05-25T18:11:48.116Z,22.03
2023-05-25T18:14:15.999Z,21.86
2023-05-25T18:16:44.763Z,21.73
2023-05-25T18:19:15.199Z,21.69
2023-05-25T18:21:43.185Z,21.59
2023-05-25T18:24:11.248Z,21.46
2023-05-25T18:26:41.620Z,21.38
2023-05-25T18:29:09.731Z,21.28
2023-05-25T18:31:37.869Z,21.19
2023-05-25T18:34:07.494Z,21.07
2023-05-25T18:36:36.363Z,20.93
2023-05-25T18:39:05.177Z,20.94
2023-05-25T18:41:33.142Z,20.94
2023-05-25T18:44:02.423Z,20.90
2023-05-25T18:46:30.546Z,20.74
2023-05-25T18:48:58.565Z,20.86
2023-05-25T18:51:26.834Z,20.83
2023-05-25T18:53:54.766Z,20.83
2023-05-25T18:56:22.813Z,20.82
2023-05-25T18:58:52.062Z,20.82
2023-05-25T19:01:21.418Z,20.85
2023-05-25T19:03:49.428Z,20.94
2023-05-25T19:06:17.411Z,20.98
2023-05-25T19:08:45.281Z,20.95
2023-05-25T19:11:14.462Z,20.91
2023-05-25T19:13:42.491Z,20.95
2023-05-25T19:16:10.382Z,20.87
2023-05-25T19:18:39.851Z,20.77
2023-05-25T19:21:07.859Z,20.78
2023-05-25T19:23:36.115Z,20.81
2023-05-25T19:26:04.019Z,20.73
2023-05-25T19:28:31.998Z,20.85
2023-05-25T19:31:00.940Z,20.85
2023-05-25T19:33:28.934Z,20.80
2023-05-25T19:35:58.230Z,20.81
2023-05-25T19:38:28.846Z,20.82
2023-05-25T19:41:02.422Z,20.81
2023-05-25T19:43:30.270Z,20.71
2023-05-25T19:45:58.261Z,20.71
2023-05-25T19:48:27.405Z,20.69
2023-05-25T19:50:55.477Z,20.71
2023-05-25T19:53:24.701Z,20.65
2023-05-25T19:55:52.592Z,20.66
2023-05-25T19:58:20.489Z,20.64
2023-05-25T20:00:48.528Z,20.59
2023-05-25T20:03:17.774Z,20.57
2023-05-25T20:05:46.422Z,20.53
2023-05-25T20:08:14.503Z,20.46
2023-05-25T20:10:44.887Z,20.38
2023-05-25T20:13:12.826Z,20.31
2023-05-25T20:15:40.735Z,20.12
2023-05-25T20:18:08.731Z,19.94
2023-05-25T20:20:36.803Z,19.93
2023-05-25T20:23:05.034Z,19.79
2023-05-25T20:25:33.014Z,19.76
2023-05-25T20:28:02.317Z,19.60
2023-05-25T20:30:30.479Z,19.39
2023-05-25T20:32:58.419Z,19.32
2023-05-25T20:35:26.466Z,19.18
2023-05-25T20:37:54.322Z,19.05
2023-05-25T20:40:22.337Z,19.05
2023-05-25T20:42:50.191Z,19.12
2023-05-25T20:45:19.480Z,19.17
2023-05-25T20:47:47.513Z,19.19
2023-05-25T20:50:15.532Z,19.14
2023-05-25T20:52:43.413Z,19.00
2023-05-25T20:55:11.449Z,18.91
2023-05-25T20:57:39.388Z,18.86
2023-05-25T21:00:08.445Z,18.88
2023-05-25T21:02:37.744Z,18.81
2023-05-25T21:05:06.482Z,18.90
2023-05-25T21:07:34.412Z,18.93
2023-05-25T21:10:02.898Z,18.96
2023-05-25T21:12:32.061Z,18.99
2023-05-25T21:15:00.074Z,19.00
2023-05-25T21:17:29.423Z,19.06
2023-05-25T21:19:58.993Z,19.04
2023-05-25T21:22:27.108Z,18.95
2023-05-25T21:24:55.148Z,19.00
2023-05-25T21:27:23.465Z,18.98
2023-05-25T21:29:51.340Z,18.91
2023-05-25T21:32:19.276Z,18.85
2023-05-25T21:34:47.124Z,18.73
2023-05-25T21:37:16.398Z,18.86
2023-05-25T21:39:44.963Z,18.87
2023-05-25T21:42:12.904Z,18.84
2023-05-25T21:44:40.795Z,18.80
2023-05-25T21:47:08.794Z,18.76
2023-05-25T21:49:36.698Z,18.73
2023-05-25T21:52:20.774Z,18.68
2023-05-25T21:54:48.817Z,18.65
2023-05-25T21:57:16.792Z,18.47
2023-05-25T21:59:44.668Z,18.46
2023-05-25T22:02:12.665Z,18.42
2023-05-25T22:04:40.605Z,18.41
2023-05-25T22:07:08.467Z,18.39
2023-05-25T22:09:37.818Z,18.39
2023-05-25T22:12:06.782Z,18.36
2023-05-25T22:14:34.736Z,18.29
2023-05-25T22:17:02.824Z,18.21
2023-05-25T22:19:31.100Z,18.22
2023-05-25T22:21:59.016Z,18.22
2023-05-25T22:24:26.952Z,18.20
2023-05-25T22:26:56.260Z,18.17
2023-05-25T22:29:24.149Z,18.10
2023-05-25T22:31:52.125Z,18.06
2023-05-25T22:34:19.996Z,18.01
2023-05-25T22:36:47.863Z,17.97
2023-05-25T22:39:15.825Z,17.98
2023-05-25T22:41:43.712Z,18.00
2023-05-25T22:44:13.022Z,17.99
2023-05-25T22:46:40.967Z,17.99
2023-05-25T22:49:08.908Z,17.99
2023-05-25T22:51:37.326Z,17.98
2023-05-25T22:54:05.222Z,17.97
2023-05-25T22:56:33.073Z,17.93
2023-05-25T22:59:00.900Z,17.88
2023-05-25T23:01:31.480Z,17.81
2023-05-25T23:04:00.437Z,17.78
2023-05-25T23:06:28.422Z,17.77
2023-05-25T23:08:56.380Z,17.73
2023-05-25T23:11:25.375Z,17.71
2023-05-25T23:13:54.721Z,17.65
2023-05-25T23:16:22.726Z,17.71
2023-05-25T23:18:57.541Z,17.72
2023-05-25T23:21:29.678Z,17.70
2023-05-25T23:23:59.532Z,17.65
2023-05-25T23:26:28.539Z,17.58
2023-05-25T23:28:56.795Z,17.55
2023-05-25T23:31:24.827Z,17.41
2023-05-25T23:33:54.190Z,17.44
2023-05-25T23:36:22.077Z,17.45
2023-05-25T23:38:50.013Z,17.47
2023-05-25T23:41:18.027Z,17.50
2023-05-25T23:43:46.422Z,17.48
2023-05-25T23:46:16.308Z,17.47
2023-05-25T23:48:44.425Z,17.39
2023-05-25T23:51:13.729Z,17.36
2023-05-25T23:53:41.626Z,17.36
2023-05-25T23:56:09.594Z,17.30
2023-05-25T23:58:37.493Z,17.32
